createdAt,value
2018-09-08T00:00:31.009Z,68.11
2018-09-08T00:03:00.814Z,68.33
2018-09-08T00:05:29.303Z,68.04
2018-09-08T00:07:57.558Z,68.24
2018-09-08T00:10:25.855Z,68.25
2018-09-08T00:12:54.239Z,68.39
2018-09-08T00:15:27.683Z,68.44
2018-09-08T00:18:01.259Z,67.38
2018-09-08T00:20:34.762Z,66.71
2018-09-08T00:23:08.340Z,66.79
2018-09-08T00:25:41.948Z,67.12
2018-09-08T00:28:15.339Z,67.47
2018-09-08T00:30:43.795Z,67.67
2018-09-08T00:33:12.026Z,67.43
2018-09-08T00:35:40.270Z,67.66
2018-09-08T00:38:08.475Z,67.93
2018-09-08T00:40:36.727Z,67.77
2018-09-08T00:43:04.937Z,67.61
2018-09-08T00:45:33.139Z,67.70
2018-09-08T00:48:01.376Z,67.84
2018-09-08T00:50:29.564Z,68.10
2018-09-08T00:52:57.766Z,68.30
2018-09-08T00:55:26.015Z,68.35
2018-09-08T00:57:54.193Z,68.45
2018-09-08T01:00:22.381Z,68.66
2018-09-08T01:02:50.583Z,68.76
2018-09-08T01:05:18.751Z,69.06
2018-09-08T01:07:46.952Z,69.28
2018-09-08T01:10:15.119Z,69.47
2018-09-08T01:12:43.298Z,69.28
2018-09-08T01:15:11.499Z,69.32
2018-09-08T01:17:39.713Z,69.21
2018-09-08T01:20:07.942Z,69.13
2018-09-08T01:22:36.142Z,69.24
2018-09-08T01:25:04.335Z,69.27
2018-09-08T01:27:32.530Z,69.09
2018-09-08T01:30:00.742Z,69.22
2018-09-08T01:32:28.922Z,69.04
2018-09-08T01:34:57.115Z,69.08
2018-09-08T01:37:25.299Z,69.15
2018-09-08T01:39:53.542Z,69.26
2018-09-08T01:42:21.759Z,69.18
2018-09-08T01:44:49.970Z,69.21
2018-09-08T01:47:18.203Z,69.39
2018-09-08T01:49:46.383Z,69.40
2018-09-08T01:52:14.595Z,69.79
2018-09-08T01:54:42.783Z,69.42
2018-09-08T01:57:10.981Z,69.66
2018-09-08T01:59:39.155Z,69.50
2018-09-08T02:02:07.355Z,69.51
2018-09-08T02:04:35.535Z,69.45
2018-09-08T02:07:03.737Z,69.69
2018-09-08T02:09:31.975Z,69.78
2018-09-08T02:12:00.178Z,69.79
2018-09-08T02:14:28.341Z,69.80
2018-09-08T02:16:56.529Z,69.97
2018-09-08T02:19:24.690Z,70.08
2018-09-08T02:21:52.883Z,70.23
2018-09-08T02:24:21.082Z,70.37
2018-09-08T02:26:49.292Z,70.34
2018-09-08T02:29:17.486Z,70.35
2018-09-08T02:31:45.699Z,70.25
2018-09-08T02:34:13.892Z,70.45
2018-09-08T02:36:42.072Z,70.14
2018-09-08T02:39:10.616Z,70.07
2018-09-08T02:41:38.815Z,69.92
2018-09-08T02:44:07.156Z,69.72
2018-09-08T02:46:35.387Z,69.82
2018-09-08T02:49:03.601Z,69.60
2018-09-08T02:51:30.742Z,69.63
2018-09-08T02:53:57.831Z,69.53
2018-09-08T02:56:24.950Z,69.70
2018-09-08T02:58:52.069Z,69.04
2018-09-08T03:01:19.198Z,69.06
2018-09-08T03:03:46.315Z,69.21
2018-09-08T03:06:13.437Z,69.35
2018-09-08T03:08:40.571Z,69.43
2018-09-08T03:11:07.683Z,69.33
2018-09-08T03:13:34.802Z,69.54
2018-09-08T03:16:01.940Z,69.57
2018-09-08T03:18:29.071Z,69.66
2018-09-08T03:20:56.206Z,69.63
2018-09-08T03:23:23.315Z,69.72
2018-09-08T03:25:50.427Z,69.85
2018-09-08T03:28:17.557Z,69.90
2018-09-08T03:30:44.682Z,69.92
2018-09-08T03:33:11.821Z,69.94
2018-09-08T03:35:38.927Z,70.11
2018-09-08T03:38:06.051Z,69.98
2018-09-08T03:40:33.177Z,70.05
2018-09-08T03:43:00.267Z,70.15
2018-09-08T03:45:27.385Z,70.04
2018-09-08T03:47:54.505Z,69.94
2018-09-08T03:50:21.614Z,69.49
2018-09-08T03:52:48.735Z,69.49
2018-09-08T03:55:15.847Z,69.41
2018-09-08T03:57:42.965Z,69.40
2018-09-08T04:00:10.090Z,69.57
2018-09-08T04:02:38.268Z,69.73
2018-09-08T04:05:06.491Z,69.80
2018-09-08T04:07:34.777Z,69.82
2018-09-08T04:10:02.998Z,69.80
2018-09-08T04:12:31.196Z,70.12
2018-09-08T04:14:59.386Z,69.97
2018-09-08T04:17:27.570Z,69.87
2018-09-08T04:19:55.744Z,70.07
2018-09-08T04:22:29.341Z,70.06
2018-09-08T04:24:57.511Z,70.07
2018-09-08T04:27:25.747Z,70.19
2018-09-08T04:29:53.971Z,70.13
2018-09-08T04:32:22.168Z,70.14
2018-09-08T04:34:50.358Z,70.15
2018-09-08T04:37:18.594Z,69.95
2018-09-08T04:39:46.815Z,70.06
2018-09-08T04:42:15.033Z,70.18
2018-09-08T04:44:43.239Z,70.10
2018-09-08T04:47:11.430Z,70.23
2018-09-08T04:49:39.761Z,69.99
2018-09-08T04:52:07.969Z,70.42
2018-09-08T04:54:36.162Z,70.14
2018-09-08T04:57:04.548Z,70.23
2018-09-08T04:59:32.764Z,70.19
2018-09-08T05:02:00.948Z,70.32
2018-09-08T05:04:29.167Z,70.06
2018-09-08T05:06:57.368Z,70.23
2018-09-08T05:09:25.546Z,70.11
2018-09-08T05:11:53.784Z,70.23
2018-09-08T05:14:21.977Z,70.03
2018-09-08T05:16:50.158Z,70.09
2018-09-08T05:19:18.357Z,70.18
2018-09-08T05:21:46.554Z,70.17
2018-09-08T05:24:14.923Z,69.92
2018-09-08T05:26:43.299Z,70.40
2018-09-08T05:29:11.497Z,70.25
2018-09-08T05:31:39.671Z,70.21
2018-09-08T05:34:07.871Z,70.13
2018-09-08T05:36:36.071Z,70.09
2018-09-08T05:39:04.582Z,70.11
2018-09-08T05:41:32.805Z,70.26
2018-09-08T05:44:01.017Z,70.23
2018-09-08T05:46:29.183Z,70.31
2018-09-08T05:48:57.480Z,70.34
2018-09-08T05:51:25.590Z,70.15
2018-09-08T05:53:53.843Z,69.47
2018-09-08T05:56:22.041Z,69.64
2018-09-08T05:58:50.238Z,69.41
2018-09-08T06:01:18.428Z,69.73
2018-09-08T06:03:46.854Z,69.52
2018-09-08T06:06:15.159Z,69.73
2018-09-08T06:08:43.349Z,69.78
2018-09-08T06:11:11.527Z,69.82
2018-09-08T06:13:39.728Z,69.51
2018-09-08T06:16:07.973Z,69.33
2018-09-08T06:18:36.176Z,69.51
2018-09-08T06:21:04.406Z,68.76
2018-09-08T06:23:32.663Z,68.66
2018-09-08T06:26:00.849Z,68.83
2018-09-08T06:28:29.099Z,69.03
2018-09-08T06:30:57.225Z,68.89
2018-09-08T06:33:25.449Z,68.87
2018-09-08T06:35:53.843Z,67.90
2018-09-08T06:38:22.125Z,66.94
2018-09-08T06:40:50.287Z,67.54
2018-09-08T06:43:18.475Z,67.70
2018-09-08T06:45:46.755Z,66.64
2018-09-08T06:48:15.016Z,67.12
2018-09-08T06:50:43.183Z,66.94
2018-09-08T06:53:11.396Z,67.19
2018-09-08T06:55:39.591Z,67.21
2018-09-08T06:58:08.069Z,66.44
2018-09-08T07:00:36.281Z,66.72
2018-09-08T07:03:04.451Z,66.34
2018-09-08T07:05:32.647Z,67.33
2018-09-08T07:08:00.846Z,66.90
2018-09-08T07:10:29.038Z,66.69
2018-09-08T07:12:57.354Z,66.29
2018-09-08T07:15:25.541Z,66.83
2018-09-08T07:17:53.731Z,65.30
2018-09-08T07:20:21.954Z,64.67
2018-09-08T07:22:50.147Z,65.08
2018-09-08T07:25:18.351Z,64.83
2018-09-08T07:27:46.546Z,65.27
2018-09-08T07:30:14.743Z,63.79
2018-09-08T07:32:42.965Z,63.88
2018-09-08T07:35:11.183Z,64.57
2018-09-08T07:37:39.373Z,63.61
2018-09-08T07:40:07.654Z,64.14
2018-09-08T07:42:35.848Z,63.24
2018-09-08T07:45:04.063Z,62.75
2018-09-08T07:47:32.281Z,63.37
2018-09-08T07:50:00.475Z,63.27
2018-09-08T07:52:28.671Z,62.19
2018-09-08T07:54:56.868Z,63.11
2018-09-08T07:57:25.062Z,62.20
2018-09-08T07:59:53.237Z,61.19
2018-09-08T08:02:21.461Z,62.28
2018-09-08T08:04:49.651Z,61.30
2018-09-08T08:07:17.861Z,60.98
2018-09-08T08:09:46.370Z,60.60
2018-09-08T08:12:14.668Z,60.44
2018-09-08T08:14:42.865Z,59.58
2018-09-08T08:17:11.063Z,59.05
2018-09-08T08:19:39.251Z,59.43
2018-09-08T08:22:07.447Z,59.89
2018-09-08T08:24:35.700Z,59.38
2018-09-08T08:27:03.877Z,58.79
2018-09-08T08:29:32.090Z,58.25
2018-09-08T08:32:00.295Z,58.69
2018-09-08T08:34:28.646Z,57.85
2018-09-08T08:36:56.838Z,57.33
2018-09-08T08:39:25.019Z,56.80
2018-09-08T08:41:53.199Z,58.09
2018-09-08T08:44:21.407Z,56.02
2018-09-08T08:46:49.582Z,56.06
2018-09-08T08:49:17.784Z,54.38
2018-09-08T08:51:57.132Z,54.64
2018-09-08T08:54:31.283Z,55.83
2018-09-08T08:56:59.490Z,54.69
2018-09-08T08:59:27.717Z,55.08
2018-09-08T09:01:55.911Z,53.84
2018-09-08T09:04:24.132Z,54.27
2018-09-08T09:06:52.349Z,53.18
2018-09-08T09:09:21.777Z,52.97
2018-09-08T09:11:50.111Z,52.15
2018-09-08T09:14:18.251Z,51.02
2018-09-08T09:16:46.423Z,51.16
2018-09-08T09:19:42.223Z,50.16
2018-09-08T09:22:22.923Z,50.48
2018-09-08T09:25:04.077Z,49.21
2018-09-08T09:27:33.479Z,48.16
2018-09-08T09:30:02.168Z,48.24
2018-09-08T09:32:30.331Z,49.24
2018-09-08T09:34:58.560Z,48.47
2018-09-08T09:37:26.868Z,46.16
2018-09-08T09:39:55.983Z,46.75
2018-09-08T09:42:24.195Z,47.73
2018-09-08T09:44:52.397Z,47.73
2018-09-08T09:47:20.618Z,46.90
2018-09-08T09:49:48.883Z,47.38
2018-09-08T09:52:17.059Z,45.40
2018-09-08T09:54:45.260Z,44.57
2018-09-08T09:57:13.426Z,44.79
2018-09-08T09:59:41.615Z,43.39
2018-09-08T10:02:44.271Z,43.11
2018-09-08T10:05:15.208Z,42.07
2018-09-08T10:07:43.500Z,42.41
2018-09-08T10:10:13.597Z,41.81
2018-09-08T10:12:41.839Z,39.79
2018-09-08T10:15:10.395Z,40.71
2018-09-08T10:17:39.340Z,39.80
2018-09-08T10:20:09.200Z,38.45
2018-09-08T10:22:37.394Z,38.49
2018-09-08T10:25:06.415Z,36.90
2018-09-08T10:27:34.644Z,37.77
2018-09-08T10:30:03.347Z,35.38
2018-09-08T10:32:31.063Z,37.07
2018-09-08T10:34:59.292Z,37.68
2018-09-08T10:37:27.499Z,39.38
2018-09-08T10:39:55.719Z,38.62
2018-09-08T10:42:23.919Z,38.96
2018-09-08T10:44:52.291Z,36.30
2018-09-08T10:47:20.514Z,35.55
2018-09-08T10:49:48.893Z,36.71
2018-09-08T10:52:28.287Z,37.71
2018-09-08T10:54:56.469Z,37.86
2018-09-08T10:57:24.676Z,37.01
2018-09-08T10:59:52.900Z,37.02
2018-09-08T11:02:21.455Z,36.29
2018-09-08T11:04:49.320Z,36.75
2018-09-08T11:07:17.539Z,34.93
2018-09-08T11:09:45.742Z,33.60
2018-09-08T11:12:13.927Z,33.82
2018-09-08T11:14:42.115Z,33.55
2018-09-08T11:17:10.285Z,33.62
2018-09-08T11:19:38.468Z,33.99
2018-09-08T11:22:06.671Z,33.76
2018-09-08T11:24:34.863Z,34.75
2018-09-08T11:27:03.052Z,35.38
2018-09-08T11:29:31.236Z,36.14
2018-09-08T11:31:59.411Z,36.19
2018-09-08T11:34:27.616Z,36.83
2018-09-08T11:36:55.835Z,37.13
2018-09-08T11:39:24.031Z,36.63
2018-09-08T11:41:52.243Z,36.55
2018-09-08T11:44:20.422Z,37.32
2018-09-08T11:46:48.607Z,36.92
2018-09-08T11:49:16.787Z,37.29
2018-09-08T11:51:45.354Z,37.70
2018-09-08T11:54:13.565Z,36.80
2018-09-08T11:56:41.880Z,35.51
2018-09-08T11:59:10.059Z,35.71
2018-09-08T12:01:38.291Z,35.78
2018-09-08T12:04:06.749Z,35.84
2018-09-08T12:06:34.938Z,34.86
2018-09-08T12:09:03.293Z,35.52
2018-09-08T12:11:32.312Z,36.48
2018-09-08T12:14:00.534Z,36.49
2018-09-08T12:16:28.685Z,36.32
2018-09-08T12:18:56.897Z,36.06
2018-09-08T12:21:25.071Z,35.32
2018-09-08T12:23:53.283Z,34.88
2018-09-08T12:26:21.512Z,35.35
2018-09-08T12:28:49.940Z,34.46
2018-09-08T12:31:18.182Z,34.42
2018-09-08T12:33:46.380Z,35.52
2018-09-08T12:36:14.569Z,36.71
2018-09-08T12:38:42.824Z,36.09
2018-09-08T12:41:11.067Z,36.01
2018-09-08T12:43:40.318Z,36.73
2018-09-08T12:46:08.568Z,36.55
2018-09-08T12:48:36.840Z,35.30
2018-09-08T12:51:05.636Z,35.86
2018-09-08T12:53:34.776Z,35.34
2018-09-08T12:56:02.978Z,34.89
2018-09-08T12:58:31.159Z,34.49
2018-09-08T13:00:59.627Z,34.63
2018-09-08T13:03:28.133Z,34.08
2018-09-08T13:05:56.319Z,34.09
2018-09-08T13:08:24.621Z,34.51
2018-09-08T13:10:52.948Z,34.70
2018-09-08T13:13:21.258Z,34.59
2018-09-08T13:15:49.484Z,34.50
2018-09-08T13:18:17.684Z,35.03
2018-09-08T13:20:45.887Z,34.09
2018-09-08T13:23:14.084Z,35.26
2018-09-08T13:25:42.302Z,33.87
2018-09-08T13:28:10.487Z,33.57
2018-09-08T13:30:38.721Z,34.15
2018-09-08T13:33:06.984Z,34.11
2018-09-08T13:35:35.210Z,34.31
2018-09-08T13:38:03.384Z,34.63
2018-09-08T13:40:31.562Z,33.79
2018-09-08T13:42:59.740Z,33.60
2018-09-08T13:45:27.925Z,33.59
2018-09-08T13:47:56.112Z,33.62
2018-09-08T13:50:24.299Z,34.13
2018-09-08T13:52:52.480Z,33.14
2018-09-08T13:55:20.653Z,32.96
2018-09-08T13:57:48.843Z,33.36
2018-09-08T14:00:17.014Z,33.48
2018-09-08T14:02:45.203Z,34.35
2018-09-08T14:05:13.400Z,34.02
2018-09-08T14:07:47.951Z,34.03
2018-09-08T14:10:16.479Z,34.49
2018-09-08T14:12:45.170Z,34.16
2018-09-08T14:15:13.437Z,34.29
2018-09-08T14:17:41.567Z,35.40
2018-09-08T14:20:09.897Z,35.12
2018-09-08T14:22:38.178Z,34.50
2018-09-08T14:25:06.771Z,33.25
2018-09-08T14:27:34.953Z,34.34
2018-09-08T14:30:03.408Z,34.41
2018-09-08T14:32:31.623Z,34.00
2018-09-08T14:34:59.792Z,34.56
2018-09-08T14:37:28.086Z,34.58
2018-09-08T14:39:56.244Z,34.70
2018-09-08T14:42:24.415Z,34.44
2018-09-08T14:44:52.592Z,35.06
2018-09-08T14:47:20.822Z,35.55
2018-09-08T14:49:49.447Z,35.44
2018-09-08T14:52:17.644Z,35.52
2018-09-08T14:54:45.829Z,35.00
2018-09-08T14:57:14.056Z,35.52
2018-09-08T14:59:42.290Z,36.18
2018-09-08T15:02:10.476Z,35.64
2018-09-08T15:04:38.776Z,35.78
2018-09-08T15:07:06.886Z,35.93
2018-09-08T15:09:35.162Z,36.33
2018-09-08T15:12:03.338Z,36.25
2018-09-08T15:14:31.510Z,35.49
2018-09-08T15:16:59.687Z,35.85
2018-09-08T15:19:27.937Z,36.43
2018-09-08T15:21:56.064Z,36.24
2018-09-08T15:24:24.265Z,35.71
2018-09-08T15:26:52.434Z,36.27
2018-09-08T15:29:20.675Z,37.21
2018-09-08T15:31:48.869Z,36.15
2018-09-08T15:34:17.065Z,35.96
2018-09-08T15:36:45.241Z,36.16
2018-09-08T15:39:13.420Z,36.61
2018-09-08T15:41:41.601Z,37.12
2018-09-08T15:44:09.792Z,37.17
2018-09-08T15:46:37.976Z,36.67
2018-09-08T15:49:06.163Z,37.86
2018-09-08T15:51:34.426Z,37.70
2018-09-08T15:54:02.558Z,37.39
2018-09-08T15:56:30.741Z,37.88
2018-09-08T15:58:58.922Z,38.52
2018-09-08T16:01:27.095Z,39.18
2018-09-08T16:03:55.284Z,39.20
2018-09-08T16:06:23.468Z,38.79
2018-09-08T16:08:51.647Z,38.30
2018-09-08T16:11:19.849Z,38.41
2018-09-08T16:13:48.007Z,38.99
2018-09-08T16:16:16.188Z,39.53
2018-09-08T16:18:44.395Z,39.19
2018-09-08T16:21:12.588Z,39.70
2018-09-08T16:23:40.765Z,39.64
2018-09-08T16:26:08.935Z,39.08
2018-09-08T16:28:37.211Z,38.73
2018-09-08T16:31:05.434Z,39.17
2018-09-08T16:33:33.665Z,39.70
2018-09-08T16:36:01.863Z,39.68
2018-09-08T16:38:30.145Z,39.79
2018-09-08T16:40:58.279Z,39.29
2018-09-08T16:43:26.492Z,39.90
2018-09-08T16:45:54.674Z,39.84
2018-09-08T16:48:22.884Z,39.53
2018-09-08T16:50:51.140Z,40.70
2018-09-08T16:53:19.404Z,41.10
2018-09-08T16:55:47.607Z,40.34
2018-09-08T16:58:16.643Z,39.78
2018-09-08T17:00:44.809Z,40.11
2018-09-08T17:03:13.019Z,39.93
2018-09-08T17:05:41.212Z,40.30
2018-09-08T17:08:11.127Z,40.81
2018-09-08T17:10:39.364Z,42.06
2018-09-08T17:13:07.559Z,41.13
2018-09-08T17:15:35.729Z,41.08
2018-09-08T17:18:04.656Z,41.86
2018-09-08T17:20:33.087Z,42.72
2018-09-08T17:23:01.373Z,41.83
2018-09-08T17:25:29.528Z,42.47
2018-09-08T17:27:57.671Z,43.11
2018-09-08T17:30:26.251Z,44.06
2018-09-08T17:32:54.500Z,43.70
2018-09-08T17:35:22.852Z,43.09
2018-09-08T17:37:51.187Z,43.78
2018-09-08T17:40:19.892Z,43.99
2018-09-08T17:42:48.126Z,44.16
2018-09-08T17:45:16.391Z,44.59
2018-09-08T17:47:44.658Z,44.86
2018-09-08T17:50:12.835Z,44.55
2018-09-08T17:52:41.020Z,44.87
2018-09-08T17:55:09.235Z,45.33
2018-09-08T17:57:37.504Z,45.60
2018-09-08T18:00:06.054Z,45.98
2018-09-08T18:02:34.268Z,46.49
2018-09-08T18:05:02.459Z,47.62
2018-09-08T18:07:30.623Z,47.75
2018-09-08T18:09:58.799Z,47.60
2018-09-08T18:12:27.166Z,48.60
2018-09-08T18:14:55.671Z,48.35
2018-09-08T18:17:24.621Z,48.23
2018-09-08T18:19:53.006Z,48.62
2018-09-08T18:22:21.167Z,48.81
2018-09-08T18:24:49.441Z,48.98
2018-09-08T18:27:17.647Z,49.33
2018-09-08T18:29:46.025Z,49.66
2018-09-08T18:32:15.075Z,49.76
2018-09-08T18:34:43.350Z,50.86
2018-09-08T18:37:11.588Z,50.98
2018-09-08T18:39:39.804Z,51.91
2018-09-08T18:42:10.263Z,51.68
2018-09-08T18:44:39.841Z,52.18
2018-09-08T18:47:09.158Z,52.55
2018-09-08T18:49:37.427Z,52.75
2018-09-08T18:52:05.666Z,52.77
2018-09-08T18:54:33.844Z,52.86
2018-09-08T18:57:04.069Z,53.30
2018-09-08T18:59:32.231Z,53.12
2018-09-08T19:02:00.395Z,52.72
2018-09-08T19:04:28.561Z,52.64
2018-09-08T19:06:56.718Z,52.51
2018-09-08T19:09:24.887Z,52.79
2018-09-08T19:11:53.047Z,53.74
2018-09-08T19:14:26.520Z,53.87
2018-09-08T19:16:54.708Z,54.15
2018-09-08T19:19:22.877Z,54.85
2018-09-08T19:21:51.220Z,54.49
2018-09-08T19:24:25.216Z,54.87
2018-09-08T19:26:54.147Z,54.89
2018-09-08T19:29:27.604Z,54.76
2018-09-08T19:31:55.787Z,55.38
2018-09-08T19:34:23.980Z,55.47
2018-09-08T19:36:52.163Z,55.22
2018-09-08T19:39:20.376Z,55.77
2018-09-08T19:41:48.581Z,55.43
2018-09-08T19:44:16.752Z,55.33
2018-09-08T19:46:50.054Z,55.39
2018-09-08T19:49:18.215Z,55.29
2018-09-08T19:51:46.439Z,55.77
2018-09-08T19:54:14.627Z,55.43
2018-09-08T19:56:48.227Z,55.70
2018-09-08T19:59:16.637Z,55.88
2018-09-08T20:01:44.916Z,56.26
2018-09-08T20:04:13.249Z,56.52
2018-09-08T20:06:42.223Z,56.73
2018-09-08T20:09:10.576Z,56.72
2018-09-08T20:11:38.759Z,56.62
2018-09-08T20:14:07.043Z,56.76
2018-09-08T20:16:35.214Z,57.08
2018-09-08T20:19:03.403Z,57.47
2018-09-08T20:21:31.605Z,56.64
2018-09-08T20:23:59.851Z,56.57
2018-09-08T20:26:28.101Z,56.73
2018-09-08T20:28:56.339Z,56.65
2018-09-08T20:31:24.451Z,57.25
2018-09-08T20:33:52.627Z,57.82
2018-09-08T20:36:20.809Z,56.39
2018-09-08T20:38:48.995Z,55.51
2018-09-08T20:41:17.196Z,55.83
2018-09-08T20:43:45.371Z,57.01
2018-09-08T20:46:13.572Z,57.00
2018-09-08T20:48:41.735Z,57.87
2018-09-08T20:51:09.927Z,57.65
2018-09-08T20:53:38.135Z,57.84
2018-09-08T20:56:06.371Z,57.56
2018-09-08T20:58:34.567Z,57.53
2018-09-08T21:01:02.743Z,57.15
2018-09-08T21:03:30.942Z,56.42
2018-09-08T21:05:59.123Z,57.02
2018-09-08T21:08:27.312Z,57.59
2018-09-08T21:10:55.505Z,58.08
2018-09-08T21:13:23.680Z,57.75
2018-09-08T21:15:51.887Z,57.94
2018-09-08T21:18:20.076Z,58.43
2018-09-08T21:20:48.250Z,57.63
2018-09-08T21:23:16.479Z,57.71
2018-09-08T21:25:44.666Z,57.93
2018-09-08T21:28:12.847Z,57.94
2018-09-08T21:30:41.064Z,58.22
2018-09-08T21:33:09.261Z,57.89
2018-09-08T21:35:37.440Z,58.12
2018-09-08T21:38:05.679Z,58.26
2018-09-08T21:40:33.872Z,58.64
2018-09-08T21:43:02.072Z,58.48
2018-09-08T21:45:30.255Z,59.30
2018-09-08T21:47:58.461Z,59.64
2018-09-08T21:50:27.162Z,59.46
2018-09-08T21:52:55.363Z,60.11
2018-09-08T21:55:23.544Z,60.30
2018-09-08T21:57:51.723Z,60.48
2018-09-08T22:00:19.957Z,60.40
2018-09-08T22:02:48.140Z,60.76
2018-09-08T22:05:16.324Z,60.25
2018-09-08T22:07:44.503Z,60.55
2018-09-08T22:10:12.686Z,60.47
2018-09-08T22:12:40.864Z,60.23
2018-09-08T22:15:09.080Z,60.38
2018-09-08T22:17:37.254Z,59.10
2018-09-08T22:20:05.567Z,59.20
2018-09-08T22:22:33.747Z,59.48
2018-09-08T22:25:01.966Z,60.19
2018-09-08T22:27:30.134Z,59.58
2018-09-08T22:29:58.353Z,59.04
2018-09-08T22:32:26.537Z,60.05
2018-09-08T22:34:54.703Z,60.16
2018-09-08T22:37:22.884Z,60.90
2018-09-08T22:39:51.169Z,60.71
2018-09-08T22:42:19.355Z,61.06
2018-09-08T22:44:47.559Z,61.11
2018-09-08T22:47:15.778Z,60.81
2018-09-08T22:49:44.164Z,61.07
2018-09-08T22:52:12.364Z,60.27
2018-09-08T22:54:40.619Z,60.54
2018-09-08T22:57:08.850Z,60.89
2018-09-08T22:59:37.093Z,60.93
2018-09-08T23:02:05.220Z,61.26
2018-09-08T23:04:33.396Z,61.26
2018-09-08T23:07:01.584Z,61.34
2018-09-08T23:09:29.769Z,60.74
2018-09-08T23:11:57.955Z,61.26
2018-09-08T23:14:26.179Z,61.11
2018-09-08T23:16:54.383Z,60.76
2018-09-08T23:19:22.563Z,60.94
2018-09-08T23:21:50.772Z,61.17
2018-09-08T23:24:18.988Z,61.29
2018-09-08T23:26:47.180Z,61.70
2018-09-08T23:29:15.371Z,62.25
2018-09-08T23:31:43.556Z,62.23
2018-09-08T23:34:11.727Z,62.34
2018-09-08T23:36:39.914Z,62.34
2018-09-08T23:39:08.172Z,62.61
2018-09-08T23:41:36.359Z,62.47
2018-09-08T23:44:04.542Z,62.22
2018-09-08T23:46:32.749Z,62.41
2018-09-08T23:49:00.967Z,62.74
2018-09-08T23:51:29.159Z,62.82
2018-09-08T23:53:57.347Z,62.94
2018-09-08T23:56:25.535Z,63.16
2018-09-08T23:58:53.718Z,63.04
